Time;durP1;ratioP1;P1;durP2;ratioP2;P2;SDS_P1;SDS_P2;PMS_P1;PMS_P2;Temp;Humidity;BMP_temperature;BMP_pressure;BME280_temperature;BME280_humidity;BME280_pressure;Samples;Min_cycle;Max_cycle;Signal;HPM_P1;HPM_P2
2021/11/27 00:00:10;;;;;;;18.80;12.65;;;;;;;2.00;71.81;94152.28;5015200;28;20096;-76
2021/11/27 00:02:39;;;;;;;18.67;12.65;;;;;;;1.98;71.62;94151.66;5015117;28;20132;-76
2021/11/27 00:05:08;;;;;;;18.17;12.07;;;;;;;1.96;71.83;94158.78;5014529;28;20070;-75
2021/11/27 00:07:36;;;;;;;18.80;12.52;;;;;;;1.95;71.87;94154.63;5014543;28;20046;-78
2021/11/27 00:10:06;;;;;;;18.40;11.85;;;;;;;1.96;71.99;94158.78;5014541;28;20045;-78
2021/11/27 00:12:33;;;;;;;17.63;11.52;;;;;;;1.95;72.17;94162.34;5014969;28;20086;-75
2021/11/27 00:15:01;;;;;;;23.67;13.82;;;;;;;1.94;72.02;94153.81;5014516;28;20065;-76
2021/11/27 00:17:28;;;;;;;20.00;11.63;;;;;;;1.92;72.42;94142.94;5014042;28;20447;-77
2021/11/27 00:19:57;;;;;;;19.13;11.57;;;;;;;1.94;72.43;94146.09;5014510;28;20056;-75
2021/11/27 00:22:25;;;;;;;19.30;12.15;;;;;;;1.96;72.44;94148.50;5014375;28;20045;-74
2021/11/27 00:24:53;;;;;;;18.58;12.27;;;;;;;1.95;71.99;94146.91;5014433;28;20163;-78
2021/11/27 00:27:20;;;;;;;21.20;13.38;;;;;;;1.91;72.04;94141.34;5013899;28;20061;-75
2021/11/27 00:29:48;;;;;;;23.92;14.32;;;;;;;1.89;72.01;94140.75;5014141;28;20046;-75
2021/11/27 00:32:16;;;;;;;27.65;14.65;;;;;;;1.85;71.99;94136.94;5013918;28;20635;-74
2021/11/27 00:34:43;;;;;;;23.20;13.80;;;;;;;1.80;71.80;94132.38;5013909;28;20120;-77
2021/11/27 00:37:12;;;;;;;19.20;11.52;;;;;;;1.76;71.96;94135.53;5013067;28;20049;-76
2021/11/27 00:39:40;;;;;;;18.50;11.15;;;;;;;1.74;71.81;94140.06;5013711;28;20137;-76
2021/11/27 00:42:08;;;;;;;19.67;12.73;;;;;;;1.71;72.22;94130.16;5013929;28;20136;-75
2021/11/27 00:44:35;;;;;;;17.23;11.75;;;;;;;1.68;71.72;94133.09;4994290;28;20058;-76
2021/11/27 00:47:03;;;;;;;18.98;11.80;;;;;;;1.63;72.00;94126.72;4974465;28;20058;-75
2021/11/27 00:49:32;;;;;;;20.13;12.13;;;;;;;1.63;71.95;94129.28;4974714;28;20073;-75
2021/11/27 00:52:00;;;;;;;17.88;11.13;;;;;;;1.60;71.83;94114.25;4990252;28;20042;-78
2021/11/27 00:54:29;;;;;;;17.40;11.40;;;;;;;1.56;71.79;94118.19;4995181;28;20046;-75
2021/11/27 00:56:57;;;;;;;19.42;11.88;;;;;;;1.51;72.04;94105.13;4993737;28;20050;-76
2021/11/27 00:59:24;;;;;;;16.92;11.13;;;;;;;1.49;72.29;94104.50;4993812;28;20057;-76
2021/11/27 01:01:53;;;;;;;20.00;11.93;;;;;;;1.48;72.28;94102.91;4993870;28;20051;-77
2021/11/27 01:04:22;;;;;;;17.42;11.73;;;;;;;1.45;72.25;94085.31;4993709;28;20061;-76
2021/11/27 01:06:50;;;;;;;20.00;12.38;;;;;;;1.41;72.37;94079.75;4993638;28;20397;-76
2021/11/27 01:09:18;;;;;;;17.83;10.55;;;;;;;1.37;72.11;94081.09;4994172;28;20373;-77
2021/11/27 01:11:51;;;;;;;18.40;11.70;;;;;;;1.33;72.93;94076.50;4993339;28;20515;-76
2021/11/27 01:14:22;;;;;;;15.63;10.43;;;;;;;1.29;72.51;94076.09;4993690;28;20046;-77
2021/11/27 01:16:53;;;;;;;15.15;10.70;;;;;;;1.28;72.57;94078.84;4993259;28;20104;-76
2021/11/27 01:19:23;;;;;;;15.05;10.40;;;;;;;1.27;72.49;94075.50;4993829;28;20078;-75
2021/11/27 01:21:57;;;;;;;16.05;10.40;;;;;;;1.26;72.61;94073.09;4993591;28;20054;-74
2021/11/27 01:24:25;;;;;;;14.90;10.10;;;;;;;1.26;72.29;94080.81;4993668;28;20058;-75
2021/11/27 01:26:54;;;;;;;14.82;10.00;;;;;;;1.26;72.45;94075.69;4996183;28;20075;-75
2021/11/27 01:29:35;;;;;;;15.20;10.00;;;;;;;1.26;72.45;94079.03;5012952;28;20103;-76
2021/11/27 01:32:03;;;;;;;17.48;10.88;;;;;;;1.27;72.55;94075.50;5013048;28;20054;-74
2021/11/27 01:34:31;;;;;;;16.23;9.80;;;;;;;1.28;72.39;94068.59;5012643;28;20502;-75
2021/11/27 01:36:59;;;;;;;16.25;10.63;;;;;;;1.27;72.34;94070.38;5012458;28;20492;-74
2021/11/27 01:39:27;;;;;;;14.65;9.68;;;;;;;1.24;72.34;94061.22;4993435;28;20411;-76
2021/11/27 01:41:56;;;;;;;16.33;10.40;;;;;;;1.20;72.63;94060.03;4993321;28;20046;-75
2021/11/27 01:44:23;;;;;;;12.93;8.93;;;;;;;1.17;72.46;94060.41;5000801;28;20046;-75
2021/11/27 01:46:52;;;;;;;15.65;10.10;;;;;;;1.16;72.47;94056.25;5012338;28;20049;-75
2021/11/27 01:49:19;;;;;;;13.50;8.43;;;;;;;1.15;72.64;94054.66;5012612;28;20053;-76
2021/11/27 01:51:47;;;;;;;14.30;9.35;;;;;;;1.18;72.69;94058.63;5012795;28;20042;-75
2021/11/27 01:54:16;;;;;;;15.40;9.95;;;;;;;1.19;72.68;94060.22;5012752;28;20508;-75
2021/11/27 01:56:46;;;;;;;14.88;9.38;;;;;;;1.21;72.77;94048.00;5012536;28;20086;-75
2021/11/27 01:59:15;;;;;;;12.65;8.63;;;;;;;1.22;72.41;94040.09;5012682;28;20572;-76
2021/11/27 02:01:45;;;;;;;14.02;9.70;;;;;;;1.22;72.49;94034.97;5012384;28;20046;-75
2021/11/27 02:04:14;;;;;;;14.38;10.27;;;;;;;1.26;73.12;94039.72;5012559;28;20053;-76
2021/11/27 02:06:44;;;;;;;16.00;10.32;;;;;;;1.30;72.60;94038.38;5012294;28;20061;-74
2021/11/27 02:09:17;;;;;;;22.25;13.43;;;;;;;1.28;72.66;94030.84;5012367;28;20053;-75
2021/11/27 02:11:45;;;;;;;21.35;14.43;;;;;;;1.27;72.71;94026.72;5012874;28;20129;-76
2021/11/27 02:14:15;;;;;;;22.75;15.27;;;;;;;1.24;72.60;94033.00;5012275;28;20049;-75
2021/11/27 02:16:45;;;;;;;25.50;17.15;;;;;;;1.24;72.59;94022.72;5012232;28;20184;-75
2021/11/27 02:19:13;;;;;;;24.90;17.75;;;;;;;1.24;72.86;94016.78;5012577;28;20054;-75
2021/11/27 02:21:44;;;;;;;37.97;23.13;;;;;;;1.22;72.78;94022.13;5012560;28;20058;-77
2021/11/27 02:24:12;;;;;;;41.85;24.55;;;;;;;1.27;72.60;94020.75;5012530;28;20054;-75
2021/11/27 02:26:41;;;;;;;33.38;21.25;;;;;;;1.29;72.71;94008.53;5011676;28;20496;-76
2021/11/27 02:29:14;;;;;;;31.70;16.02;;;;;;;1.31;72.91;94011.69;5012596;28;20141;-77
2021/11/27 02:31:42;;;;;;;30.75;17.40;;;;;;;1.33;72.76;94013.09;5012011;28;20042;-77
2021/11/27 02:34:10;;;;;;;17.45;11.10;;;;;;;1.32;72.40;94008.16;5012295;28;20092;-75
2021/11/27 02:36:40;;;;;;;14.60;10.43;;;;;;;1.31;72.40;94012.50;5011675;28;20416;-76
2021/11/27 02:39:12;;;;;;;11.85;8.90;;;;;;;1.34;72.73;94016.47;5012417;28;20074;-79
2021/11/27 02:41:40;;;;;;;12.27;8.35;;;;;;;1.39;72.76;94009.00;5012109;28;20133;-75
2021/11/27 02:44:09;;;;;;;14.05;9.40;;;;;;;1.39;72.20;94009.00;5000567;28;20054;-76
2021/11/27 02:46:37;;;;;;;13.57;8.70;;;;;;;1.39;72.55;94009.00;4972855;28;20054;-77
2021/11/27 02:49:05;;;;;;;12.90;9.00;;;;;;;1.41;72.64;94009.59;4973184;28;20167;-76
2021/11/27 02:51:33;;;;;;;13.50;9.23;;;;;;;1.42;72.28;94003.47;4984964;28;20140;-76
2021/11/27 02:54:00;;;;;;;15.02;8.93;;;;;;;1.46;72.65;93998.75;4992575;28;20069;-77
2021/11/27 02:56:30;;;;;;;13.20;8.88;;;;;;;1.46;72.14;93999.53;4994996;28;20076;-77
2021/11/27 02:58:57;;;;;;;11.15;8.38;;;;;;;1.46;72.46;94003.88;4996309;28;20542;-76
2021/11/27 03:01:25;;;;;;;12.13;9.35;;;;;;;1.48;72.41;93997.56;4996249;28;20046;-78
2021/11/27 03:03:53;;;;;;;12.55;9.25;;;;;;;1.47;72.13;93990.88;4996201;28;20058;-77
2021/11/27 03:06:20;;;;;;;12.95;9.07;;;;;;;1.44;72.08;93988.66;4995570;28;20054;-76
2021/11/27 03:08:48;;;;;;;11.82;8.52;;;;;;;1.41;72.25;93989.84;4995987;28;20050;-77
2021/11/27 03:11:15;;;;;;;12.38;8.73;;;;;;;1.40;72.31;93995.97;4996198;28;20057;-79
2021/11/27 03:13:44;;;;;;;11.60;8.07;;;;;;;1.40;72.55;93990.00;4995863;28;20054;-77
2021/11/27 03:16:12;;;;;;;12.88;8.60;;;;;;;1.39;72.41;93993.56;4995727;28;20089;-76
2021/11/27 03:18:39;;;;;;;10.50;8.20;;;;;;;1.41;72.62;93991.63;4995498;28;20057;-76
2021/11/27 03:21:07;;;;;;;9.90;7.85;;;;;;;1.44;72.30;93993.78;4995730;28;20038;-76
2021/11/27 03:23:35;;;;;;;10.15;7.05;;;;;;;1.46;72.15;93986.69;4995674;28;20085;-76
2021/11/27 03:26:04;;;;;;;9.85;7.35;;;;;;;1.47;72.21;93990.06;4995203;28;20542;-76
2021/11/27 03:28:32;;;;;;;11.73;7.20;;;;;;;1.49;72.12;93983.75;5033202;22;20050;-76
2021/11/27 03:31:01;;;;;;;10.02;7.50;;;;;;;1.52;72.09;93991.06;5015030;28;20046;-77
2021/11/27 03:33:30;;;;;;;10.57;6.75;;;;;;;1.54;72.58;93986.53;5015320;28;20423;-77
2021/11/27 03:35:58;;;;;;;9.70;6.93;;;;;;;1.57;72.21;93986.16;5014724;28;20141;-77
2021/11/27 03:38:26;;;;;;;9.55;7.45;;;;;;;1.61;72.03;93984.00;5014851;28;20049;-77
2021/11/27 03:40:54;;;;;;;8.52;6.32;;;;;;;1.63;72.09;93985.41;5014893;28;20046;-77
2021/11/27 03:43:21;;;;;;;9.52;6.75;;;;;;;1.67;72.33;93990.97;5014758;28;20049;-77
2021/11/27 03:45:49;;;;;;;8.88;6.40;;;;;;;1.71;71.67;93986.25;4995124;28;20054;-77
2021/11/27 03:48:25;;;;;;;9.65;7.28;;;;;;;1.71;71.60;93981.09;4995281;28;20101;-77
2021/11/27 03:50:54;;;;;;;9.98;6.63;;;;;;;1.72;72.06;93987.81;5000886;28;20447;-78
2021/11/27 03:53:25;;;;;;;9.38;6.47;;;;;;;1.73;71.73;93984.25;5014508;28;20057;-77
2021/11/27 03:55:58;;;;;;;13.30;6.32;;;;;;;1.73;71.59;93986.81;5014171;28;20515;-77
2021/11/27 03:58:27;;;;;;;8.30;6.20;;;;;;;1.75;71.83;93987.41;5014175;28;20459;-77
2021/11/27 04:00:56;;;;;;;9.85;6.50;;;;;;;1.75;71.36;93992.56;5014751;28;20049;-78
2021/11/27 04:03:27;;;;;;;7.50;6.20;;;;;;;1.75;71.58;93992.56;5014564;28;20655;-77
2021/11/27 04:05:56;;;;;;;8.13;6.40;;;;;;;1.76;71.42;93989.03;5014061;28;20069;-77
2021/11/27 04:08:24;;;;;;;6.82;5.07;;;;;;;1.77;71.53;93988.03;5014100;28;20058;-78
2021/11/27 04:10:52;;;;;;;7.80;5.65;;;;;;;1.78;71.14;93982.69;5014463;28;20046;-77
2021/11/27 04:13:21;;;;;;;7.90;5.53;;;;;;;1.79;71.01;93983.47;5014092;28;20132;-76
2021/11/27 04:15:50;;;;;;;7.80;5.50;;;;;;;1.82;71.18;93994.19;5013547;28;20096;-76
2021/11/27 04:18:17;;;;;;;8.45;5.90;;;;;;;1.87;71.05;93995.41;5014147;28;20117;-77
2021/11/27 04:20:46;;;;;;;8.02;5.25;;;;;;;1.90;71.14;93990.63;5013789;28;20042;-76
2021/11/27 04:23:15;;;;;;;7.90;5.63;;;;;;;1.94;70.99;94002.13;5015013;28;20053;-76
2021/11/27 04:25:42;;;;;;;8.43;5.53;;;;;;;1.95;71.07;93998.59;5014383;28;20499;-79
2021/11/27 04:28:11;;;;;;;6.72;5.57;;;;;;;1.97;70.65;93993.25;5013991;28;20056;-78
2021/11/27 04:30:38;;;;;;;6.95;5.93;;;;;;;1.99;71.08;93996.41;5013783;28;20061;-76
2021/11/27 04:33:06;;;;;;;7.18;5.40;;;;;;;2.00;71.32;93996.22;5013485;28;20046;-76
2021/11/27 04:35:36;;;;;;;7.30;5.72;;;;;;;2.04;71.25;93997.44;5013329;28;20108;-77
2021/11/27 04:38:06;;;;;;;7.05;5.30;;;;;;;2.08;71.39;93992.72;5013224;28;20053;-76
2021/11/27 04:40:34;;;;;;;7.82;5.40;;;;;;;2.11;71.31;93999.25;5013657;28;20168;-76
2021/11/27 04:43:02;;;;;;;10.20;6.68;;;;;;;2.12;71.60;93996.47;5013607;28;20046;-80
2021/11/27 04:45:30;;;;;;;8.35;6.25;;;;;;;2.14;71.47;93996.25;5013360;28;20140;-78
2021/11/27 04:47:57;;;;;;;7.10;5.97;;;;;;;2.13;71.14;94004.97;5013115;28;20056;-76
2021/11/27 04:50:26;;;;;;;8.65;6.50;;;;;;;2.14;71.13;94003.97;5011203;28;20109;-75
2021/11/27 04:52:54;;;;;;;9.85;6.30;;;;;;;2.14;71.13;94001.41;5013054;28;20500;-77
2021/11/27 04:55:23;;;;;;;10.70;6.10;;;;;;;2.14;70.77;94002.19;5013076;28;20077;-76
2021/11/27 04:57:51;;;;;;;8.68;6.43;;;;;;;2.16;71.26;94002.00;5013332;28;20056;-78
2021/11/27 05:00:24;;;;;;;8.02;6.13;;;;;;;2.17;71.12;94011.31;5013289;28;20137;-76
2021/11/27 05:02:51;;;;;;;8.02;5.78;;;;;;;2.15;71.05;94008.16;5012940;28;20058;-78
2021/11/27 05:05:19;;;;;;;6.43;4.82;;;;;;;2.14;70.97;93996.25;5013151;28;20081;-77
2021/11/27 05:07:47;;;;;;;7.93;5.47;;;;;;;2.15;71.25;94005.59;5012822;28;20463;-76
2021/11/27 05:10:14;;;;;;;7.07;5.07;;;;;;;2.19;71.79;94019.66;5012906;28;20058;-76
2021/11/27 05:12:44;;;;;;;7.13;5.60;;;;;;;2.23;70.97;94008.78;5012556;28;20049;-76
2021/11/27 05:15:12;;;;;;;7.40;5.10;;;;;;;2.24;70.81;94006.97;5012749;28;20053;-76
2021/11/27 05:17:40;;;;;;;7.63;5.88;;;;;;;2.26;71.02;94005.00;5012522;28;20487;-76
2021/11/27 05:20:09;;;;;;;8.98;5.95;;;;;;;2.26;71.10;94010.16;5012390;28;20518;-77
2021/11/27 05:22:37;;;;;;;6.90;5.10;;;;;;;2.26;70.79;94008.38;5012941;28;20455;-76
2021/11/27 05:25:05;;;;;;;8.23;5.63;;;;;;;2.28;70.82;94005.63;5013158;28;20408;-77
2021/11/27 05:27:34;;;;;;;7.50;5.25;;;;;;;2.28;71.10;94012.53;5012459;28;20576;-77
2021/11/27 05:30:04;;;;;;;7.07;5.38;;;;;;;2.29;71.71;94012.34;5012733;28;20073;-76
2021/11/27 05:32:40;;;;;;;8.35;6.38;;;;;;;2.29;71.48;94014.13;5012805;28;20066;-76
2021/11/27 05:35:11;;;;;;;6.57;5.22;;;;;;;2.31;72.03;94010.34;5012843;28;20046;-77
2021/11/27 05:37:39;;;;;;;6.80;5.38;;;;;;;2.32;71.63;94014.53;5012011;28;20503;-77
2021/11/27 05:40:08;;;;;;;8.10;5.05;;;;;;;2.32;71.02;94008.56;5012577;28;20046;-77
2021/11/27 05:42:36;;;;;;;7.55;5.53;;;;;;;2.32;71.22;94006.81;5012368;28;20451;-76
2021/11/27 05:45:05;;;;;;;6.00;4.55;;;;;;;2.32;70.36;94008.56;5012709;28;20050;-76
2021/11/27 05:47:33;;;;;;;7.15;5.40;;;;;;;2.32;71.29;94014.53;5012692;28;20050;-76
2021/11/27 05:50:00;;;;;;;6.60;5.20;;;;;;;2.33;70.77;94013.53;5012151;28;20052;-76
2021/11/27 05:52:28;;;;;;;5.35;4.82;;;;;;;2.35;71.01;94014.13;5010876;28;20392;-77
2021/11/27 05:54:55;;;;;;;5.95;5.18;;;;;;;2.37;71.24;94014.72;5012130;28;20561;-77
2021/11/27 05:57:23;;;;;;;6.50;5.22;;;;;;;2.39;70.74;94010.19;5012298;28;20053;-77
2021/11/27 05:59:50;;;;;;;6.50;4.63;;;;;;;2.43;70.56;94015.75;5012138;28;20050;-76
2021/11/27 06:02:19;;;;;;;6.95;4.78;;;;;;;2.43;70.91;94008.81;5012328;28;20055;-76
2021/11/27 06:04:49;;;;;;;6.43;5.07;;;;;;;2.45;71.13;94012.00;5013196;28;20427;-75
2021/11/27 06:07:17;;;;;;;6.93;5.22;;;;;;;2.47;71.62;94016.91;5011864;28;20065;-75
2021/11/27 06:09:44;;;;;;;5.80;4.75;;;;;;;2.46;70.62;94011.00;5011858;28;20050;-76
2021/11/27 06:12:12;;;;;;;6.10;4.55;;;;;;;2.46;70.43;94023.06;5012079;28;20459;-76
2021/11/27 06:14:39;;;;;;;6.93;5.25;;;;;;;2.43;71.01;94019.09;5012303;28;20050;-76
2021/11/27 06:17:07;;;;;;;6.13;5.10;;;;;;;2.41;70.46;94018.50;5011831;28;20050;-77
2021/11/27 06:19:36;;;;;;;8.75;5.78;;;;;;;2.40;70.61;94023.84;5012068;28;20046;-77
2021/11/27 06:22:03;;;;;;;6.65;5.10;;;;;;;2.42;71.19;94032.16;5012014;28;20046;-78
2021/11/27 06:24:31;;;;;;;7.35;5.15;;;;;;;2.45;71.19;94026.63;5012353;28;20049;-78
2021/11/27 06:26:59;;;;;;;6.53;5.10;;;;;;;2.42;70.97;94043.22;5012072;28;20049;-77
2021/11/27 06:29:26;;;;;;;6.28;5.10;;;;;;;2.43;71.10;94041.47;5012570;28;20054;-78
2021/11/27 06:31:54;;;;;;;6.63;5.00;;;;;;;2.39;71.09;94035.91;5016204;28;20057;-78
2021/11/27 06:34:21;;;;;;;6.80;5.13;;;;;;;2.41;70.97;94038.31;5015854;28;20060;-77
2021/11/27 06:36:50;;;;;;;6.82;5.47;;;;;;;2.41;71.41;94044.22;5015615;28;20534;-77
2021/11/27 06:39:18;;;;;;;7.72;5.70;;;;;;;2.41;71.41;94044.22;5016063;28;20054;-78
2021/11/27 06:41:50;;;;;;;;;;;;;;;2.39;71.52;94046.22;5016833;28;20060;-78
2021/11/27 06:44:18;;;;;;;7.22;5.05;;;;;;;2.32;71.49;94050.56;5015957;28;19929;-77
2021/11/27 06:46:46;;;;;;;7.07;5.30;;;;;;;2.27;71.87;94050.31;5015869;28;20458;-79
2021/11/27 06:49:14;;;;;;;8.10;6.32;;;;;;;2.25;71.56;94057.44;5016571;28;20057;-78
2021/11/27 06:51:42;;;;;;;8.98;5.72;;;;;;;2.20;71.66;94059.78;5015984;28;20053;-78
2021/11/27 06:54:11;;;;;;;9.40;6.43;;;;;;;2.17;72.04;94057.63;5015836;28;20126;-76
2021/11/27 06:56:38;;;;;;;11.02;6.57;;;;;;;2.14;71.91;94055.41;5015993;28;20396;-78
2021/11/27 06:59:05;;;;;;;8.45;6.10;;;;;;;2.14;72.21;94042.56;5015562;28;20050;-76
2021/11/27 07:01:33;;;;;;;9.10;5.88;;;;;;;2.09;72.89;94056.00;5015104;28;20046;-77
2021/11/27 07:04:01;;;;;;;9.02;6.28;;;;;;;2.08;72.93;94071.59;5017165;28;20042;-76
2021/11/27 07:06:31;;;;;;;15.20;10.27;;;;;;;2.05;72.71;94075.34;5019172;28;20057;-84
2021/11/27 07:08:59;;;;;;;9.18;6.10;;;;;;;2.02;72.64;94081.69;5020647;28;20045;-78
2021/11/27 07:11:27;;;;;;;7.80;5.70;;;;;;;2.02;73.21;94089.38;5019097;28;20058;-76
2021/11/27 07:13:55;;;;;;;7.88;5.38;;;;;;;2.03;73.08;94093.56;5015028;28;20050;-77
2021/11/27 07:16:23;;;;;;;7.95;5.43;;;;;;;2.06;73.17;94097.53;5015264;28;20061;-77
2021/11/27 07:18:50;;;;;;;6.50;5.18;;;;;;;2.10;73.09;94100.50;5015195;28;20045;-76
2021/11/27 07:21:18;;;;;;;7.75;5.78;;;;;;;2.12;73.06;94106.25;5018473;28;20050;-77
2021/11/27 07:23:45;;;;;;;9.25;6.10;;;;;;;2.13;73.10;94107.84;5040867;28;20054;-78
2021/11/27 07:26:13;;;;;;;8.27;5.55;;;;;;;2.10;73.28;94105.63;5039080;28;20053;-76
2021/11/27 07:28:42;;;;;;;7.63;5.10;;;;;;;2.12;73.42;94106.25;5034612;28;20502;-77
2021/11/27 07:31:11;;;;;;;7.05;5.43;;;;;;;2.15;73.18;94098.16;5035264;28;20050;-77
2021/11/27 07:33:40;;;;;;;23.20;13.30;;;;;;;2.18;73.34;94105.47;5035029;28;20050;-77
2021/11/27 07:36:08;;;;;;;10.55;6.93;;;;;;;2.20;73.20;94108.66;5034607;28;20076;-78
2021/11/27 07:38:36;;;;;;;9.18;6.07;;;;;;;2.24;73.06;94109.88;5018387;28;20520;-76
2021/11/27 07:41:05;;;;;;;7.95;5.65;;;;;;;2.26;73.26;94103.53;5014659;28;20565;-78
2021/11/27 07:43:34;;;;;;;8.88;6.68;;;;;;;2.28;72.97;94100.78;5014034;28;20050;-76
2021/11/27 07:46:03;;;;;;;9.65;5.82;;;;;;;2.31;72.97;94105.53;5014304;28;20053;-77
2021/11/27 07:48:32;;;;;;;8.85;6.63;;;;;;;2.31;72.63;94100.41;5015149;28;20060;-77
2021/11/27 07:50:59;;;;;;;8.13;6.13;;;;;;;2.33;72.66;94103.56;5012979;28;20052;-76
2021/11/27 07:53:28;;;;;;;12.40;8.18;;;;;;;2.34;72.43;94100.03;5015025;28;20081;-78
2021/11/27 07:55:56;;;;;;;11.27;8.02;;;;;;;2.35;72.79;94105.97;5014534;28;20077;-76
2021/11/27 07:58:24;;;;;;;14.02;8.38;;;;;;;2.36;72.55;94108.34;5014606;28;20050;-76
2021/11/27 08:00:51;;;;;;;18.60;9.85;;;;;;;2.39;72.58;94107.94;5014586;28;20053;-77
2021/11/27 08:03:21;;;;;;;15.30;8.52;;;;;;;2.43;72.41;94104.00;5014228;28;20111;-76
2021/11/27 08:05:48;;;;;;;11.95;7.43;;;;;;;2.41;72.43;94100.84;5014046;28;20046;-76
2021/11/27 08:08:16;;;;;;;9.55;6.20;;;;;;;2.41;72.42;94108.56;5014424;28;20073;-76
2021/11/27 08:10:44;;;;;;;8.93;6.47;;;;;;;2.41;72.44;94108.56;5014442;28;20061;-76
2021/11/27 08:13:11;;;;;;;10.35;6.05;;;;;;;2.43;72.95;94114.31;5014440;28;20046;-75
2021/11/27 08:15:39;;;;;;;17.23;6.38;;;;;;;2.46;72.86;94113.91;5014353;28;20077;-78
2021/11/27 08:18:07;;;;;;;7.15;5.30;;;;;;;2.53;72.94;94118.28;5013728;28;20541;-76
2021/11/27 08:20:35;;;;;;;8.85;5.88;;;;;;;2.58;72.96;94126.22;5012025;28;20054;-75
2021/11/27 08:23:05;;;;;;;6.53;5.20;;;;;;;2.64;72.95;94125.44;5009642;28;20498;-76
2021/11/27 08:25:33;;;;;;;9.50;6.25;;;;;;;2.70;72.86;94124.69;5012681;28;20053;-75
2021/11/27 08:28:02;;;;;;;8.43;5.60;;;;;;;2.76;72.65;94129.06;5012853;28;20077;-76
2021/11/27 08:30:31;;;;;;;8.93;6.25;;;;;;;2.81;72.19;94133.63;5013747;28;20046;-76
2021/11/27 08:32:58;;;;;;;9.45;5.75;;;;;;;2.85;72.12;94142.56;5013072;28;20053;-77
2021/11/27 08:35:26;;;;;;;8.32;5.78;;;;;;;2.88;71.81;94137.78;5013269;28;20054;-76
2021/11/27 08:37:55;;;;;;;9.43;5.38;;;;;;;2.88;72.13;94140.38;5013902;28;20046;-76
2021/11/27 08:40:22;;;;;;;7.93;5.20;;;;;;;2.89;72.09;94149.69;5013575;28;20061;-77
2021/11/27 08:42:50;;;;;;;5.82;5.15;;;;;;;2.94;72.26;94143.16;5013330;28;20049;-76
2021/11/27 08:45:18;;;;;;;6.22;5.00;;;;;;;2.94;71.91;94149.09;5012991;28;20054;-76
2021/11/27 08:47:45;;;;;;;6.85;5.18;;;;;;;2.95;72.15;94147.31;5012679;28;20065;-76
2021/11/27 08:50:13;;;;;;;6.63;5.07;;;;;;;2.97;72.06;94161.59;5012545;28;20057;-75
2021/11/27 08:52:41;;;;;;;7.40;5.43;;;;;;;2.99;72.24;94164.75;5012763;28;20495;-77
2021/11/27 08:55:10;;;;;;;7.28;5.13;;;;;;;2.99;72.58;94169.91;5013586;28;20057;-77
2021/11/27 08:57:38;;;;;;;8.20;5.63;;;;;;;3.02;72.27;94166.97;5013100;28;20046;-77
2021/11/27 09:00:08;;;;;;;10.85;6.93;;;;;;;3.01;72.01;94157.63;5013389;28;20053;-78
2021/11/27 09:02:36;;;;;;;12.98;7.43;;;;;;;3.01;72.24;94164.56;5013662;28;20056;-78
2021/11/27 09:05:04;;;;;;;10.50;6.45;;;;;;;3.01;72.23;94162.78;5013625;28;20045;-76
2021/11/27 09:07:31;;;;;;;10.07;6.28;;;;;;;3.05;72.06;94173.50;5012949;28;20046;-76
2021/11/27 09:09:59;;;;;;;10.77;6.18;;;;;;;3.04;72.24;94172.72;5013384;28;20689;-75
2021/11/27 09:12:27;;;;;;;8.13;5.15;;;;;;;3.03;72.32;94176.25;5012953;28;20052;-76
2021/11/27 09:14:56;;;;;;;5.88;4.75;;;;;;;3.05;72.12;94179.44;5012048;28;20507;-76
2021/11/27 09:17:25;;;;;;;8.73;6.05;;;;;;;3.03;72.04;94181.41;5012402;28;20053;-76
2021/11/27 09:19:53;;;;;;;5.57;4.63;;;;;;;3.03;72.51;94185.78;5012623;28;20455;-75
2021/11/27 09:22:20;;;;;;;8.02;5.40;;;;;;;3.06;72.40;94187.94;5012721;28;20046;-75
2021/11/27 09:24:48;;;;;;;6.55;5.47;;;;;;;3.08;72.48;94191.13;5012510;28;20057;-76
2021/11/27 09:27:15;;;;;;;7.72;5.20;;;;;;;3.12;72.32;94189.75;5035126;22;20049;-75
2021/11/27 09:29:44;;;;;;;7.47;5.07;;;;;;;3.17;72.36;94191.75;5031982;28;20426;-75
2021/11/27 09:32:12;;;;;;;5.90;4.93;;;;;;;3.23;72.34;94191.75;5033190;28;20057;-75
2021/11/27 09:34:40;;;;;;;7.38;4.68;;;;;;;3.26;72.03;94190.59;5033162;28;20125;-75
2021/11/27 09:37:12;;;;;;;6.20;3.95;;;;;;;3.32;72.03;94200.09;5035120;28;20052;-75
2021/11/27 09:39:41;;;;;;;6.68;5.00;;;;;;;3.35;71.48;94198.94;5014615;28;20061;-75
2021/11/27 09:42:09;;;;;;;6.35;4.85;;;;;;;3.37;71.50;94205.47;5013166;28;20069;-75
2021/11/27 09:44:38;;;;;;;6.47;4.72;;;;;;;3.42;71.84;94200.53;5012840;28;20514;-75
2021/11/27 09:47:07;;;;;;;5.05;4.15;;;;;;;3.48;71.54;94204.91;5012745;28;20053;-75
2021/11/27 09:49:37;;;;;;;5.32;4.20;;;;;;;3.57;71.53;94202.13;5013187;28;20065;-76
2021/11/27 09:52:05;;;;;;;12.68;6.40;;;;;;;3.66;71.25;94199.16;5013210;28;20474;-74
2021/11/27 09:54:32;;;;;;;9.27;5.47;;;;;;;3.79;71.24;94195.00;5012422;28;20507;-75
2021/11/27 09:57:00;;;;;;;7.97;4.13;;;;;;;3.90;70.79;94191.81;5012428;28;20054;-75
2021/11/27 09:59:27;;;;;;;4.93;3.83;;;;;;;4.01;70.67;94193.78;5012821;28;20053;-74
2021/11/27 10:01:56;;;;;;;4.28;3.45;;;;;;;4.11;70.83;94196.78;5012736;28;20050;-74
2021/11/27 10:04:27;;;;;;;3.65;3.13;;;;;;;4.23;70.31;94191.78;5012389;28;20157;-75
2021/11/27 10:06:59;;;;;;;3.80;3.10;;;;;;;4.30;69.99;94192.53;5012063;28;20053;-75
2021/11/27 10:09:27;;;;;;;4.47;3.28;;;;;;;4.37;70.04;94189.94;5012688;28;20092;-75
2021/11/27 10:11:55;;;;;;;4.45;3.40;;;;;;;4.48;69.75;94189.34;5012365;28;20068;-74
2021/11/27 10:14:24;;;;;;;3.83;2.97;;;;;;;4.60;69.44;94186.13;5012202;28;20052;-74
2021/11/27 10:17:12;;;;;;;4.50;3.33;;;;;;;4.74;68.73;94182.50;5012137;28;20050;-74
2021/11/27 10:19:56;;;;;;;3.30;2.60;;;;;;;4.84;68.18;94188.03;5012389;28;20511;-75
2021/11/27 10:22:28;;;;;;;5.47;3.60;;;;;;;4.95;67.77;94184.78;5012372;28;20431;-75
2021/11/27 10:24:55;;;;;;;4.35;2.90;;;;;;;5.08;68.02;94183.94;5012383;28;20171;-74
2021/11/27 10:27:26;;;;;;;6.38;2.90;;;;;;;5.22;67.14;94176.91;5011590;28;20049;-75
2021/11/27 10:29:58;;;;;;;4.65;3.22;;;;;;;5.30;67.35;94168.13;5012210;28;20057;-74
2021/11/27 10:32:31;;;;;;;4.63;3.20;;;;;;;5.35;66.71;94174.22;5012228;28;20054;-75
2021/11/27 10:35:01;;;;;;;4.72;3.65;;;;;;;5.39;67.44;94174.63;5012218;28;20049;-75
2021/11/27 10:37:33;;;;;;;5.32;4.00;;;;;;;5.41;66.77;94182.97;5011593;28;20423;-75
2021/11/27 10:40:05;;;;;;;9.32;4.32;;;;;;;5.37;67.12;94177.41;5012484;28;20054;-75
2021/11/27 10:42:34;;;;;;;5.30;4.30;;;;;;;5.33;66.58;94175.44;5012458;28;20061;-75
2021/11/27 10:45:17;;;;;;;8.73;4.88;;;;;;;5.39;66.33;94168.66;5012230;28;20050;-74
2021/11/27 10:47:46;;;;;;;7.65;4.97;;;;;;;5.52;66.40;94169.34;5012703;28;20058;-75
2021/11/27 10:50:19;;;;;;;5.00;3.90;;;;;;;5.68;65.79;94160.28;5012545;28;20046;-75
2021/11/27 10:52:47;;;;;;;6.55;4.55;;;;;;;5.82;65.57;94155.81;5012079;28;20057;-74
2021/11/27 10:55:20;;;;;;;5.75;4.07;;;;;;;5.95;64.81;94165.28;5011948;28;20049;-75
2021/11/27 10:57:49;;;;;;;5.05;4.10;;;;;;;6.10;64.39;94162.34;5011999;28;20050;-75
2021/11/27 11:00:33;;;;;;;6.15;4.55;;;;;;;6.25;63.74;94167.19;5012283;28;20050;-74
2021/11/27 11:03:02;;;;;;;5.32;4.50;;;;;;;6.39;64.06;94163.47;5012179;28;20053;-75
2021/11/27 11:05:33;;;;;;;4.13;3.67;;;;;;;6.52;63.30;94160.72;5012319;28;20049;-75
2021/11/27 11:08:02;;;;;;;5.15;4.05;;;;;;;6.66;63.50;94160.59;5011918;28;20054;-75
2021/11/27 11:10:32;;;;;;;4.93;3.78;;;;;;;6.67;62.88;94170.72;5012065;28;20050;-75
2021/11/27 11:13:02;;;;;;;5.13;3.53;;;;;;;6.60;62.59;94170.81;5012292;28;20088;-75
2021/11/27 11:15:31;;;;;;;5.72;3.95;;;;;;;6.57;62.52;94171.22;5011861;28;20057;-75
2021/11/27 11:18:11;;;;;;;5.60;3.58;;;;;;;6.53;61.65;94177.06;5014089;28;20058;-75
2021/11/27 11:20:44;;;;;;;4.50;4.03;;;;;;;6.48;62.35;94187.28;5015777;28;20056;-75
2021/11/27 11:23:15;;;;;;;5.30;4.40;;;;;;;6.40;62.72;94206.47;5015579;28;20124;-75
2021/11/27 11:25:55;;;;;;;6.22;3.60;;;;;;;6.33;62.64;94206.53;5016122;28;20500;-75
2021/11/27 11:28:25;;;;;;;5.20;4.55;;;;;;;6.27;63.23;94216.94;5016591;28;20065;-76
2021/11/27 11:30:56;;;;;;;6.55;4.70;;;;;;;6.18;63.76;94212.03;5016090;28;20069;-75
2021/11/27 11:33:25;;;;;;;4.50;3.92;;;;;;;6.08;63.83;94219.50;5016102;28;20046;-75
2021/11/27 11:35:54;;;;;;;5.55;3.55;;;;;;;5.96;63.67;94216.81;5016051;28;20064;-75
2021/11/27 11:38:22;;;;;;;4.43;3.78;;;;;;;5.89;64.39;94216.03;5015388;28;20056;-75
2021/11/27 11:40:52;;;;;;;4.68;3.88;;;;;;;5.86;64.50;94221.66;5014905;28;20450;-75
2021/11/27 11:43:20;;;;;;;5.95;4.10;;;;;;;5.82;64.51;94214.53;5014866;28;20069;-75